createdAt,value
2019-04-21T00:01:57.801Z,17.57
2019-04-21T00:04:38.037Z,17.83
2019-04-21T00:07:14.403Z,15.67
2019-04-21T00:09:56.393Z,19.10
2019-04-21T00:12:15.436Z,16.97
2019-04-21T00:14:42.404Z,16.40
2019-04-21T00:17:05.062Z,18.13
2019-04-21T00:19:35.720Z,18.80
2019-04-21T00:22:14.927Z,18.97
2019-04-21T00:24:47.477Z,17.30
2019-04-21T00:27:21.435Z,15.13
2019-04-21T00:29:52.057Z,16.47
2019-04-21T00:32:19.483Z,15.67
2019-04-21T00:34:34.269Z,15.10
2019-04-21T00:37:12.308Z,16.80
2019-04-21T00:42:25.428Z,16.30
2019-04-21T00:44:47.319Z,14.87
2019-04-21T00:47:28.950Z,16.10
2019-04-21T00:49:56.645Z,15.60
2019-04-21T00:52:51.267Z,15.73
2019-04-21T00:57:51.499Z,15.13
2019-04-21T01:00:18.594Z,16.60
2019-04-21T01:02:53.690Z,17.30
2019-04-21T01:05:16.460Z,17.53
2019-04-21T01:07:46.511Z,17.30
2019-04-21T01:10:09.335Z,16.07
2019-04-21T01:12:49.507Z,15.23
2019-04-21T01:15:24.724Z,15.97
2019-04-21T01:17:46.286Z,18.07
2019-04-21T01:20:10.449Z,18.40
2019-04-21T01:22:28.424Z,17.73
2019-04-21T01:25:11.947Z,17.67
2019-04-21T01:27:55.182Z,16.70
2019-04-21T01:30:31.210Z,15.73
2019-04-21T01:33:09.559Z,18.80
2019-04-21T01:35:40.304Z,18.77
2019-04-21T01:38:06.756Z,16.37
2019-04-21T01:40:42.830Z,15.67
2019-04-21T01:43:27.567Z,16.00
2019-04-21T01:45:54.941Z,16.07
2019-04-21T01:48:24.469Z,16.23
2019-04-21T01:50:56.823Z,16.73
2019-04-21T01:53:44.733Z,15.63
2019-04-21T01:58:57.562Z,16.50
2019-04-21T02:01:49.069Z,15.60
2019-04-21T02:04:24.017Z,16.07
2019-04-21T02:06:44.552Z,19.87
2019-04-21T02:09:17.295Z,17.40
2019-04-21T02:11:50.919Z,18.57
2019-04-21T02:14:19.699Z,14.97
2019-04-21T02:16:47.987Z,17.03
2019-04-21T02:19:13.976Z,14.40
2019-04-21T02:21:41.051Z,12.73
2019-04-21T02:24:30.108Z,13.33
2019-04-21T02:26:45.749Z,12.43
2019-04-21T02:29:22.984Z,12.43
2019-04-21T02:32:07.846Z,12.43
2019-04-21T02:34:37.042Z,13.23
2019-04-21T02:37:25.299Z,13.10
2019-04-21T02:39:27.986Z,13.03
2019-04-21T02:44:39.273Z,11.13
2019-04-21T02:52:14.223Z,11.70
2019-04-21T03:00:06.987Z,11.70
2019-04-21T03:02:54.758Z,11.50
2019-04-21T03:08:40.353Z,14.03
2019-04-21T03:10:59.250Z,13.40
2019-04-21T03:13:31.418Z,11.43
2019-04-21T03:23:31.929Z,13.20
2019-04-21T03:26:03.359Z,15.40
2019-04-21T03:28:30.124Z,11.40
2019-04-21T03:34:02.562Z,11.87
2019-04-21T03:38:30.826Z,13.47
2019-04-21T03:40:47.149Z,11.50
2019-04-21T03:45:52.716Z,12.60
2019-04-21T03:48:27.181Z,12.97
2019-04-21T03:50:59.504Z,12.93
2019-04-21T03:56:12.465Z,12.53
2019-04-21T03:58:50.534Z,10.97
2019-04-21T04:04:04.655Z,11.73
2019-04-21T04:09:44.421Z,13.27
2019-04-21T04:12:12.430Z,12.10
2019-04-21T04:19:41.940Z,11.73
2019-04-21T04:24:49.829Z,10.93
2019-04-21T04:27:20.875Z,11.37
2019-04-21T04:29:39.796Z,13.20
2019-04-21T04:32:20.099Z,10.83
2019-04-21T05:21:03.846Z,10.53
2019-04-21T05:23:45.714Z,12.40
2019-04-21T05:26:41.965Z,10.27
2019-04-21T05:29:38.912Z,10.10
2019-04-21T05:35:07.992Z,10.20
2019-04-21T05:38:03.120Z,9.47
2019-04-21T05:40:33.541Z,10.47
2019-04-21T05:43:10.915Z,12.67
2019-04-21T05:45:45.339Z,9.90
2019-04-21T05:48:24.212Z,9.60
2019-04-21T05:50:53.855Z,9.90
2019-04-21T05:53:31.377Z,11.17
2019-04-21T05:55:58.674Z,9.73
2019-04-21T05:58:30.138Z,10.93
2019-04-21T06:03:44.793Z,9.93
2019-04-21T06:08:42.310Z,13.00
2019-04-21T06:11:19.153Z,8.63
2019-04-21T06:16:19.283Z,8.80
2019-04-21T06:18:53.287Z,11.57
2019-04-21T06:21:18.885Z,11.10
2019-04-21T06:23:45.029Z,8.80
2019-04-21T06:26:46.919Z,8.83
2019-04-21T06:31:21.666Z,11.27
2019-04-21T06:37:14.948Z,13.37
2019-04-21T06:39:51.933Z,10.70
2019-04-21T06:42:09.145Z,8.87
2019-04-21T06:48:11.191Z,8.30
2019-04-21T06:50:44.149Z,12.40
2019-04-21T06:53:20.763Z,8.03
2019-04-21T06:55:44.077Z,10.17
2019-04-21T06:58:10.067Z,7.93
2019-04-21T07:00:43.798Z,8.90
2019-04-21T07:03:19.327Z,7.10
2019-04-21T07:05:58.963Z,7.10
2019-04-21T07:08:29.390Z,7.57
2019-04-21T07:10:51.738Z,6.73
2019-04-21T07:13:15.607Z,7.27
2019-04-21T07:15:53.544Z,7.17
2019-04-21T07:18:19.502Z,7.53
2019-04-21T07:20:49.014Z,8.40
2019-04-21T07:23:16.231Z,9.07
2019-04-21T07:25:51.961Z,7.80
2019-04-21T07:28:25.301Z,8.40
2019-04-21T07:31:02.035Z,7.70
2019-04-21T07:35:57.841Z,7.77
2019-04-21T07:38:27.420Z,9.33
2019-04-21T07:40:45.510Z,7.37
2019-04-21T07:43:20.432Z,6.80
2019-04-21T07:45:50.175Z,6.10
2019-04-21T07:48:31.326Z,7.30
2019-04-21T07:51:11.285Z,7.53
2019-04-21T07:54:01.941Z,9.57
2019-04-21T07:56:15.902Z,9.23
2019-04-21T07:59:03.745Z,7.90
2019-04-21T08:01:30.776Z,8.83
2019-04-21T08:04:03.677Z,9.03
2019-04-21T08:06:41.902Z,8.67
2019-04-21T08:08:54.076Z,7.90
2019-04-21T08:11:28.243Z,7.80
2019-04-21T08:14:04.580Z,7.97
2019-04-21T08:16:30.426Z,7.13
2019-04-21T08:19:10.013Z,7.70
2019-04-21T08:21:35.456Z,8.53
2019-04-21T08:24:04.728Z,8.20
2019-04-21T08:26:36.954Z,7.63
2019-04-21T08:29:13.114Z,10.07
2019-04-21T08:31:38.292Z,9.70
2019-04-21T08:34:08.402Z,8.60
2019-04-21T08:36:44.801Z,8.80
2019-04-21T08:39:01.393Z,9.77
2019-04-21T08:41:31.627Z,9.60
2019-04-21T08:44:02.222Z,8.77
2019-04-21T08:46:39.212Z,11.47
2019-04-21T08:49:08.082Z,9.67
2019-04-21T08:51:39.485Z,8.10
2019-04-21T08:54:09.312Z,8.87
2019-04-21T08:56:59.239Z,7.33
2019-04-21T08:59:37.621Z,7.87
2019-04-21T09:02:23.587Z,8.57
2019-04-21T09:04:54.191Z,8.07
2019-04-21T09:07:32.051Z,9.77
2019-04-21T09:09:57.446Z,8.50
2019-04-21T09:12:29.085Z,9.07
2019-04-21T09:15:01.326Z,7.77
2019-04-21T09:17:27.699Z,7.50
2019-04-21T09:20:08.005Z,8.53
2019-04-21T09:22:30.221Z,8.90
2019-04-21T09:25:00.206Z,10.57
2019-04-21T09:27:27.639Z,7.90
2019-04-21T09:29:47.887Z,7.57
2019-04-21T09:32:21.798Z,9.47
2019-04-21T09:34:47.509Z,9.77
2019-04-21T09:37:28.702Z,6.77
2019-04-21T09:39:49.990Z,8.30
2019-04-21T09:42:18.449Z,8.47
2019-04-21T09:44:47.567Z,7.37
2019-04-21T09:47:22.866Z,5.13
2019-04-21T09:49:49.341Z,5.50
2019-04-21T09:52:37.745Z,5.27
2019-04-21T09:55:06.960Z,7.37
2019-04-21T09:57:41.313Z,4.80
2019-04-21T10:00:13.112Z,8.53
2019-04-21T10:02:42.869Z,6.60
2019-04-21T10:05:07.757Z,4.90
2019-04-21T10:07:40.520Z,4.37
2019-04-21T10:10:08.170Z,5.67
2019-04-21T10:12:37.446Z,8.20
2019-04-21T10:15:06.301Z,5.40
2019-04-21T10:17:37.971Z,7.83
2019-04-21T10:20:07.159Z,4.10
2019-04-21T10:22:35.460Z,6.90
2019-04-21T10:25:04.723Z,4.30
2019-04-21T10:27:43.165Z,4.57
2019-04-21T10:30:14.347Z,6.23
2019-04-21T10:32:42.774Z,6.67
2019-04-21T10:35:11.271Z,7.27
2019-04-21T10:38:00.816Z,4.93
2019-04-21T10:40:15.939Z,5.07
2019-04-21T10:42:44.216Z,6.10
2019-04-21T10:45:12.959Z,5.53
2019-04-21T10:47:41.109Z,4.50
2019-04-21T10:50:10.927Z,6.57
2019-04-21T10:52:56.710Z,4.57
2019-04-21T10:55:40.222Z,5.50
2019-04-21T10:58:34.130Z,5.17
2019-04-21T11:01:21.080Z,4.77
2019-04-21T11:04:27.788Z,3.80
2019-04-21T11:07:13.513Z,4.17
2019-04-21T11:09:36.149Z,7.57
2019-04-21T11:12:06.263Z,3.77
2019-04-21T11:14:35.494Z,4.30
2019-04-21T11:17:06.110Z,4.87
2019-04-21T11:19:34.894Z,4.67
2019-04-21T11:22:05.045Z,10.60
2019-04-21T11:24:33.413Z,6.37
2019-04-21T11:27:06.763Z,3.90
2019-04-21T11:29:37.142Z,4.20
2019-04-21T13:53:04.938Z,3.50
2019-04-21T14:19:07.597Z,3.43
2019-04-21T14:26:36.767Z,4.57
2019-04-21T14:49:03.723Z,4.53
2019-04-21T14:51:52.665Z,3.80
2019-04-21T17:50:41.285Z,5.50
2019-04-21T17:54:21.277Z,5.90
2019-04-21T18:57:24.409Z,7.93
2019-04-21T19:00:26.443Z,8.47
2019-04-21T19:19:50.801Z,7.03
2019-04-21T19:22:14.208Z,8.90
2019-04-21T19:25:31.499Z,6.27
2019-04-21T19:28:36.181Z,8.43
2019-04-21T19:31:34.982Z,7.63
2019-04-21T19:50:30.569Z,8.30
2019-04-21T19:53:26.759Z,9.37
2019-04-21T19:58:05.357Z,10.23
2019-04-21T20:00:34.665Z,7.13
2019-04-21T20:03:03.104Z,9.77
2019-04-21T20:05:43.062Z,10.67
2019-04-21T20:08:17.650Z,7.03
2019-04-21T20:10:48.465Z,10.33
2019-04-21T20:13:22.278Z,8.90
2019-04-21T20:15:51.069Z,9.20
2019-04-21T20:18:16.534Z,8.00
2019-04-21T20:20:33.007Z,8.83
2019-04-21T20:23:01.386Z,7.03
2019-04-21T20:25:34.408Z,8.07
2019-04-21T20:28:07.211Z,6.43
2019-04-21T20:30:51.115Z,6.47
2019-04-21T20:35:58.749Z,7.57
2019-04-21T20:38:12.596Z,6.47
2019-04-21T20:40:41.257Z,8.47
2019-04-21T20:43:28.648Z,5.57
2019-04-21T20:45:54.073Z,6.83
2019-04-21T20:48:08.202Z,7.27
2019-04-21T20:50:49.949Z,7.77
2019-04-21T20:53:19.788Z,7.43
2019-04-21T20:55:48.969Z,7.93
2019-04-21T20:58:15.094Z,7.17
2019-04-21T21:01:04.263Z,7.17
2019-04-21T21:03:24.856Z,7.13
2019-04-21T21:05:47.526Z,5.97
2019-04-21T21:08:26.152Z,7.37
2019-04-21T21:10:45.357Z,6.07
2019-04-21T21:13:26.720Z,11.27
2019-04-21T21:15:51.436Z,7.37
2019-04-21T21:18:37.989Z,6.43
2019-04-21T21:20:53.048Z,5.70
2019-04-21T21:23:14.519Z,8.87
2019-04-21T21:28:52.559Z,7.03
2019-04-21T21:31:35.086Z,7.07
2019-04-21T21:34:02.380Z,7.03
2019-04-21T21:36:27.461Z,7.33
2019-04-21T21:38:59.775Z,6.63
2019-04-21T21:41:22.131Z,9.50
2019-04-21T21:43:45.183Z,6.90
2019-04-21T21:46:30.951Z,6.67
2019-04-21T21:48:54.133Z,8.40
2019-04-21T21:51:22.807Z,7.37
2019-04-21T21:53:44.408Z,6.00
2019-04-21T21:56:12.736Z,9.80
2019-04-21T21:58:42.880Z,7.50
2019-04-21T22:01:14.792Z,7.80
2019-04-21T22:03:46.551Z,10.87
2019-04-21T22:06:17.509Z,6.90
2019-04-21T22:08:43.048Z,6.13
2019-04-21T22:11:11.333Z,7.63
2019-04-21T22:13:47.619Z,6.43
2019-04-21T22:16:14.476Z,7.10
2019-04-21T22:19:04.688Z,8.83
2019-04-21T22:21:34.645Z,8.43
2019-04-21T22:23:52.845Z,6.27
2019-04-21T22:26:13.542Z,6.43
2019-04-21T22:28:41.669Z,9.83
2019-04-21T22:31:15.153Z,6.43
2019-04-21T22:33:47.938Z,8.60
2019-04-21T22:36:21.032Z,7.63
2019-04-21T22:38:54.903Z,7.17
2019-04-21T22:41:18.952Z,6.50
2019-04-21T22:43:43.884Z,7.13
2019-04-21T22:46:11.627Z,7.00
2019-04-21T22:48:38.794Z,5.87
2019-04-21T22:51:10.449Z,7.23
2019-04-21T22:53:44.875Z,7.83
2019-04-21T22:56:14.867Z,6.13
2019-04-21T22:58:42.259Z,6.17
2019-04-21T23:01:28.247Z,6.37
2019-04-21T23:04:00.437Z,6.57
2019-04-21T23:06:27.589Z,9.70
2019-04-21T23:08:53.147Z,8.77
2019-04-21T23:11:21.533Z,13.33
2019-04-21T23:13:55.003Z,14.30
2019-04-21T23:16:26.162Z,19.27
2019-04-21T23:19:08.124Z,18.97
2019-04-21T23:21:30.445Z,16.33
2019-04-21T23:24:05.936Z,7.53
2019-04-21T23:26:37.917Z,6.90
2019-04-21T23:29:07.513Z,5.67
2019-04-21T23:31:44.454Z,11.30
2019-04-21T23:33:48.710Z,22.33
2019-04-21T23:36:22.354Z,17.13
2019-04-21T23:38:50.667Z,17.47
2019-04-21T23:41:17.363Z,8.40
2019-04-21T23:43:53.097Z,7.03
2019-04-21T23:46:22.089Z,5.30
2019-04-21T23:49:01.823Z,6.70
2019-04-21T23:51:32.430Z,7.63
2019-04-21T23:53:47.186Z,6.70
2019-04-21T23:56:21.655Z,6.00
2019-04-21T23:58:54.185Z,5.40
